aviador You're here:

SCQP Decoded Metar

in
Report Time2017-12-11 05:00:00
UTC Time2017-12-11 05:38:29
Flight Rules vfr VFR
Wind360° at 05 kt
Visibility9999 m
Phenomena:N/A
Clouds:N/A
CeilingNone
Temp12°C
Dew Point12°C (100% RH)
AAT10.8°C
QNH1010 hPa
Raw Report
METAR SCQP 110500Z 36005KT CAVOK 12/12 Q1010=

Extra information for SCQP:More info

Social comments